Time;durP1;ratioP1;P1;durP2;ratioP2;P2;SDS_P1;SDS_P2;PMS_P1;PMS_P2;Temp;Humidity;BMP_temperature;BMP_pressure;BME280_temperature;BME280_humidity;BME280_pressure;Samples;Min_cycle;Max_cycle;Signal;HPM_P1;HPM_P2
2022/01/14 00:02:15;;;;;;;162.52;40.88;;;5.90;99.90;;;;;;4991805;28;20061;-75
2022/01/14 00:04:41;;;;;;;171.48;38.42;;;5.90;99.90;;;;;;4992897;28;20033;-73
2022/01/14 00:07:07;;;;;;;159.73;37.25;;;5.90;99.90;;;;;;4993387;28;20041;-73
2022/01/14 00:09:35;;;;;;;151.48;36.90;;;5.90;99.90;;;;;;4992611;28;20077;-73
2022/01/14 00:12:10;;;;;;;177.25;37.55;;;5.90;99.90;;;;;;5007768;28;20702;-74
2022/01/14 00:15:01;;;;;;;170.63;37.67;;;5.90;99.90;;;;;;4997960;28;20128;-74
2022/01/14 00:18:11;;;;;;;156.77;35.88;;;5.90;99.90;;;;;;5001218;28;20061;-74
2022/01/14 00:20:37;;;;;;;174.05;37.15;;;5.90;99.90;;;;;;4993211;28;20058;-74
2022/01/14 00:23:05;;;;;;;171.27;40.10;;;5.90;99.90;;;;;;5013329;28;22699;-74
2022/01/14 00:33:31;;;;;;;165.05;36.72;;;5.90;99.90;;;;;;4986790;28;20692;-73
2022/01/14 00:35:57;;;;;;;186.65;37.17;;;5.90;99.90;;;;;;4989678;28;20073;-73
2022/01/14 00:38:22;;;;;;;184.15;35.28;;;5.90;99.90;;;;;;4995026;28;20077;-73
2022/01/14 00:40:48;;;;;;;164.85;35.67;;;5.90;99.90;;;;;;4990923;28;20480;-73
2022/01/14 00:43:15;;;;;;;199.73;40.15;;;6.00;99.90;;;;;;4989684;28;20034;-73
2022/01/14 00:45:41;;;;;;;212.77;38.80;;;6.00;99.90;;;;;;4991479;28;20072;-73
2022/01/14 00:48:09;;;;;;;200.80;38.88;;;6.00;99.90;;;;;;4991606;28;20038;-74
2022/01/14 00:50:44;;;;;;;191.32;39.40;;;6.00;99.90;;;;;;4980947;28;20064;-74
2022/01/14 00:53:10;;;;;;;188.13;37.15;;;6.00;99.90;;;;;;4998804;28;20042;-74
2022/01/14 00:55:50;;;;;;;199.98;40.05;;;6.00;99.90;;;;;;5007821;28;20040;-73
2022/01/14 01:01:00;;;;;;;179.10;40.50;;;6.00;99.90;;;;;;4991158;28;20260;-74
2022/01/14 01:03:29;;;;;;;181.90;40.53;;;6.00;99.90;;;;;;4981674;28;20092;-74
2022/01/14 01:05:58;;;;;;;197.77;42.80;;;6.00;99.90;;;;;;4989748;28;20053;-74
2022/01/14 01:08:27;;;;;;;181.77;42.67;;;6.10;99.90;;;;;;4977739;28;20046;-74
2022/01/14 01:11:11;;;;;;;181.35;41.08;;;6.10;99.90;;;;;;4995466;28;20050;-75
2022/01/14 01:13:47;;;;;;;204.85;43.45;;;6.00;99.90;;;;;;4965729;28;20132;-74
2022/01/14 01:16:17;;;;;;;186.90;42.67;;;6.00;99.90;;;;;;4982340;28;20041;-74
2022/01/14 01:18:44;;;;;;;196.25;44.10;;;6.10;99.90;;;;;;4977750;28;20439;-74
2022/01/14 01:21:13;;;;;;;179.10;43.35;;;6.00;99.90;;;;;;4997330;28;20043;-74
2022/01/14 01:23:39;;;;;;;169.57;44.72;;;6.00;99.90;;;;;;4982069;28;20034;-74
2022/01/14 01:27:05;;;;;;;166.68;43.55;;;6.00;99.90;;;;;;4995416;28;20040;-74
2022/01/14 01:35:21;;;;;;;;;;;;;;;;;;;;;
2022/01/14 01:38:37;;;;;;;150.85;43.60;;;6.10;99.90;;;;;;4997973;28;20056;-76
2022/01/14 01:42:26;;;;;;;;;;;;;;;;;;;;;
2022/01/14 01:45:10;;;;;;;148.55;44.33;;;6.10;99.90;;;;;;4916580;28;20157;-77
2022/01/14 01:48:11;;;;;;;137.43;44.95;;;6.00;99.90;;;;;;5006254;28;20037;-76
2022/01/14 01:50:59;;;;;;;144.95;42.45;;;6.10;99.90;;;;;;4984842;28;20493;-76
2022/01/14 01:53:53;;;;;;;144.57;44.10;;;6.10;99.90;;;;;;5005722;28;20086;-76
2022/01/14 01:56:53;;;;;;;136.70;44.53;;;6.20;99.90;;;;;;4990263;28;20636;-76
2022/01/14 01:59:27;;;;;;;136.10;45.20;;;6.10;99.90;;;;;;4987307;28;20133;-76
2022/01/14 02:02:49;;;;;;;;;;;;;;;;;;;;;
2022/01/14 02:06:00;;;;;;;141.30;45.35;;;6.10;99.90;;;;;;4968550;28;20046;-76
2022/01/14 02:09:06;;;;;;;134.32;45.50;;;6.10;99.90;;;;;;4939188;28;20051;-76
2022/01/14 02:12:45;;;;;;;;;;;;;;;;;;;;;
2022/01/14 02:19:22;;;;;;;131.45;43.17;;;6.20;99.90;;;;;;4989803;28;20054;-76
2022/01/14 02:22:28;;;;;;;123.70;43.53;;;6.20;99.90;;;;;;5009706;28;20045;-76
2022/01/14 02:28:52;;;;;;;117.90;41.72;;;6.20;99.90;;;;;;4982284;28;20488;-77
2022/01/14 02:32:06;;;;;;;119.38;42.85;;;6.10;99.90;;;;;;4974518;28;20050;-76
2022/01/14 02:34:32;;;;;;;120.07;41.08;;;6.10;99.90;;;;;;4987625;28;20112;-76
2022/01/14 02:37:01;;;;;;;125.00;40.30;;;6.10;99.90;;;;;;4989092;28;20038;-76
2022/01/14 02:39:53;;;;;;;117.38;40.67;;;6.10;99.90;;;;;;4986896;28;20042;-76
2022/01/14 02:42:49;;;;;;;112.43;39.28;;;6.10;99.90;;;;;;5005614;28;20054;-76
2022/01/14 02:45:32;;;;;;;111.97;39.92;;;6.10;99.90;;;;;;4999624;28;20046;-76
2022/01/14 02:48:24;;;;;;;110.55;40.20;;;6.10;99.90;;;;;;4986169;28;20547;-76
2022/01/14 02:51:26;;;;;;;110.85;39.90;;;6.10;99.90;;;;;;4987060;28;20045;-76
2022/01/14 02:54:21;;;;;;;110.28;40.88;;;6.10;99.90;;;;;;4982727;28;20058;-77
2022/01/14 02:57:33;;;;;;;107.15;40.42;;;6.00;99.90;;;;;;4978811;28;20137;-77
2022/01/14 03:00:11;;;;;;;112.97;40.47;;;6.10;99.90;;;;;;4987073;28;20125;-76
2022/01/14 03:03:13;;;;;;;118.75;41.33;;;6.00;99.90;;;;;;5002708;28;20049;-77
2022/01/14 03:06:00;;;;;;;119.30;40.13;;;6.00;99.90;;;;;;4986465;28;20042;-77
2022/01/14 03:09:00;;;;;;;116.35;40.25;;;6.00;99.90;;;;;;4974507;28;20042;-76
2022/01/14 03:11:43;;;;;;;113.30;40.08;;;6.00;99.90;;;;;;4989384;28;20527;-77
2022/01/14 03:15:11;;;;;;;108.75;38.10;;;6.00;99.90;;;;;;4993011;28;20041;-76
2022/01/14 03:29:14;;;;;;;105.03;36.40;;;6.10;99.90;;;;;;4995305;28;20486;-76
2022/01/14 03:32:17;;;;;;;97.07;35.35;;;6.10;99.90;;;;;;4992578;28;20061;-76
2022/01/14 03:34:48;;;;;;;102.20;37.03;;;6.10;99.90;;;;;;4993614;28;20034;-76
2022/01/14 03:41:06;;;;;;;98.05;37.60;;;6.00;99.90;;;;;;4983167;28;20049;-76
2022/01/14 03:44:05;;;;;;;102.72;36.88;;;6.10;99.90;;;;;;4992551;28;20041;-76
2022/01/14 03:47:33;;;;;;;99.03;36.88;;;6.00;99.90;;;;;;5004362;28;20515;-76
2022/01/14 03:50:27;;;;;;;98.95;36.70;;;6.00;99.90;;;;;;4990939;28;20180;-77
2022/01/14 03:53:19;;;;;;;97.90;38.38;;;6.00;99.90;;;;;;5008508;28;20103;-77
2022/01/14 03:56:27;;;;;;;105.40;36.80;;;6.00;99.90;;;;;;5010684;28;20111;-77
2022/01/14 03:59:54;;;;;;;;;;;;;;;;;;;;;
2022/01/14 04:03:17;;;;;;;96.38;32.75;;;6.00;99.90;;;;;;4989833;28;20049;-76
2022/01/14 04:10:29;;;;;;;98.43;34.55;;;6.00;99.90;;;;;;4868502;29;20090;-76
2022/01/14 04:14:06;;;;;;;;;;;;;;;;;;;;;
2022/01/14 04:30:37;;;;;;;91.43;35.83;;;6.00;99.90;;;;;;4742346;29;20099;-76
2022/01/14 04:50:47;;;;;;;;;;;6.00;99.90;;;;;;4772967;29;20131;-76
2022/01/14 04:58:12;;;;;;;;;;;;;;;;;;;;;
2022/01/14 05:01:14;;;;;;;86.82;35.08;;;5.90;99.90;;;;;;4845017;29;20051;-76
2022/01/14 05:04:03;;;;;;;84.05;33.40;;;5.90;99.90;;;;;;4912782;29;20040;-76
2022/01/14 05:07:57;;;;;;;83.45;33.65;;;6.00;99.90;;;;;;4958910;28;20050;-76
2022/01/14 05:19:31;;;;;;;80.88;33.25;;;5.80;99.90;;;;;;4929276;29;20462;-76
2022/01/14 05:23:46;;;;;;;79.38;32.90;;;5.90;99.90;;;;;;4855642;29;20052;-76
2022/01/14 05:43:52;;;;;;;;;;;;;;;;;;;;;
2022/01/14 05:48:14;;;;;;;;;;;;;;;;;;;;;
2022/01/14 05:55:48;;;;;;;78.25;33.80;;;5.90;99.90;;;;;;4886889;29;21038;-76
2022/01/14 06:02:52;;;;;;;76.18;33.88;;;5.80;99.90;;;;;;4880440;29;20052;-76
2022/01/14 06:05:48;;;;;;;70.43;34.00;;;5.80;99.90;;;;;;4926786;28;20144;-76
2022/01/14 06:08:20;;;;;;;69.78;32.15;;;5.80;99.90;;;;;;4975455;28;20044;-76
2022/01/14 06:10:46;;;;;;;63.40;32.28;;;5.80;99.90;;;;;;4983881;28;20416;-76
2022/01/14 06:13:12;;;;;;;69.45;33.45;;;5.80;99.90;;;;;;4991339;28;20046;-76
2022/01/14 06:15:40;;;;;;;71.88;34.22;;;5.80;99.90;;;;;;4997560;28;20211;-76
2022/01/14 06:18:08;;;;;;;69.90;33.63;;;5.80;99.90;;;;;;4991459;28;20038;-76
2022/01/14 06:20:33;;;;;;;73.57;32.10;;;5.70;99.90;;;;;;5004100;28;20119;-76
2022/01/14 06:22:59;;;;;;;82.05;34.20;;;5.70;99.90;;;;;;4988731;28;20076;-76
2022/01/14 06:25:25;;;;;;;73.20;33.83;;;5.70;99.90;;;;;;4984194;28;20068;-76
2022/01/14 06:27:51;;;;;;;68.28;31.65;;;5.70;99.90;;;;;;4988796;28;20030;-77
2022/01/14 06:30:17;;;;;;;78.82;33.60;;;5.70;99.90;;;;;;4990645;28;20044;-76
2022/01/14 06:32:42;;;;;;;80.63;34.53;;;5.70;99.90;;;;;;4991623;28;20681;-76
2022/01/14 06:35:14;;;;;;;72.55;33.33;;;5.70;99.90;;;;;;4992096;28;20065;-77
2022/01/14 06:37:41;;;;;;;67.50;33.30;;;5.70;99.90;;;;;;4987500;28;20034;-77
2022/01/14 06:40:08;;;;;;;79.53;34.03;;;5.70;99.90;;;;;;4988654;28;20045;-77
2022/01/14 06:42:35;;;;;;;70.40;33.60;;;5.70;99.90;;;;;;4999499;28;20058;-77
2022/01/14 06:45:01;;;;;;;73.63;33.40;;;5.70;99.90;;;;;;4982787;28;20037;-76
2022/01/14 06:47:27;;;;;;;68.85;33.13;;;5.70;99.90;;;;;;5001445;28;20044;-77
2022/01/14 06:49:52;;;;;;;76.03;34.78;;;5.60;99.90;;;;;;4994647;28;20042;-76
2022/01/14 06:52:18;;;;;;;77.28;34.03;;;5.70;99.90;;;;;;5002629;28;20076;-76
2022/01/14 06:54:44;;;;;;;72.80;33.55;;;5.70;99.90;;;;;;4961466;28;20042;-76
2022/01/14 06:57:10;;;;;;;74.80;33.72;;;5.70;99.90;;;;;;5008774;28;20037;-77
2022/01/14 07:00:08;;;;;;;71.97;33.28;;;5.70;99.90;;;;;;5100818;22;20067;-77
2022/01/14 07:02:52;;;;;;;68.05;31.52;;;5.60;99.90;;;;;;4991855;28;20086;-77
2022/01/14 07:05:44;;;;;;;70.57;32.92;;;5.70;99.90;;;;;;4975410;28;20089;-77
2022/01/14 07:08:38;;;;;;;67.50;32.50;;;5.60;99.90;;;;;;4990229;28;20049;-77
2022/01/14 07:11:36;;;;;;;64.20;31.55;;;5.70;99.90;;;;;;4971430;28;20050;-77
2022/01/14 07:14:38;;;;;;;62.63;32.55;;;5.70;99.90;;;;;;4995046;28;20070;-76
2022/01/14 07:25:01;;;;;;;57.30;30.38;;;5.80;99.90;;;;;;5001847;28;20053;-76
2022/01/14 07:28:50;;;;;;;59.92;31.05;;;5.80;99.90;;;;;;5015513;28;20069;-77
2022/01/14 07:32:03;;;;;;;56.60;29.75;;;5.80;99.90;;;;;;4973303;28;20081;-76
2022/01/14 07:34:32;;;;;;;62.03;30.48;;;5.80;99.90;;;;;;5003420;28;20137;-75
2022/01/14 07:37:00;;;;;;;51.13;29.55;;;5.80;99.90;;;;;;5014164;28;20041;-75
2022/01/14 07:40:09;;;;;;;57.47;31.33;;;5.80;99.90;;;;;;5013027;28;20080;-75
2022/01/14 07:43:19;;;;;;;52.42;29.60;;;5.80;99.90;;;;;;5013584;28;20042;-76
2022/01/14 07:45:48;;;;;;;59.80;30.27;;;5.80;99.90;;;;;;4995471;28;20037;-76
2022/01/14 07:48:20;;;;;;;52.53;30.15;;;5.90;99.90;;;;;;5010472;28;20045;-75
2022/01/14 07:50:46;;;;;;;52.13;29.80;;;5.90;99.90;;;;;;5008651;28;20041;-76
2022/01/14 07:53:11;;;;;;;54.63;30.25;;;5.90;99.90;;;;;;4993038;28;20092;-76
2022/01/14 07:55:37;;;;;;;54.70;28.67;;;5.90;99.90;;;;;;4995007;28;20121;-76
2022/01/14 07:58:04;;;;;;;52.83;29.98;;;5.90;99.90;;;;;;5011282;28;20045;-76
2022/01/14 08:00:30;;;;;;;50.20;28.23;;;6.00;99.90;;;;;;5028232;28;20041;-76
2022/01/14 08:02:56;;;;;;;51.05;29.30;;;5.90;99.90;;;;;;5006871;28;20056;-76
2022/01/14 08:05:22;;;;;;;53.20;29.48;;;5.90;99.90;;;;;;4988209;28;20045;-76
2022/01/14 08:07:51;;;;;;;53.72;29.98;;;5.90;99.90;;;;;;5004031;28;20038;-76
2022/01/14 08:10:17;;;;;;;48.80;28.80;;;5.90;99.90;;;;;;4982727;28;20038;-76
2022/01/14 08:12:43;;;;;;;49.58;28.27;;;5.90;99.90;;;;;;4993549;28;20492;-76
2022/01/14 08:15:10;;;;;;;47.75;26.67;;;5.90;99.90;;;;;;4995222;28;20049;-76
2022/01/14 08:17:35;;;;;;;51.38;26.60;;;5.90;99.90;;;;;;4995319;28;20046;-76
2022/01/14 08:20:01;;;;;;;50.50;28.30;;;6.00;99.90;;;;;;5010423;28;20050;-77
2022/01/14 08:22:28;;;;;;;45.30;26.85;;;6.00;99.90;;;;;;5013098;28;20053;-77
2022/01/14 08:24:54;;;;;;;49.17;26.10;;;6.00;99.90;;;;;;5008359;28;20042;-77
2022/01/14 08:27:20;;;;;;;42.20;25.40;;;6.00;99.90;;;;;;4994991;28;20033;-76
2022/01/14 08:29:47;;;;;;;42.03;25.13;;;6.10;99.90;;;;;;5012631;28;20492;-76
2022/01/14 08:32:14;;;;;;;42.85;25.15;;;6.00;99.90;;;;;;5009699;28;20045;-76
2022/01/14 08:34:39;;;;;;;45.15;24.73;;;6.10;99.90;;;;;;5009896;28;20484;-77
2022/01/14 08:37:05;;;;;;;37.60;24.27;;;6.10;99.90;;;;;;5008364;28;20053;-77
2022/01/14 08:39:31;;;;;;;40.75;24.33;;;6.10;99.90;;;;;;5009476;28;20041;-77
2022/01/14 08:41:58;;;;;;;49.47;26.23;;;6.10;99.90;;;;;;4991833;28;20034;-76
2022/01/14 08:44:24;;;;;;;44.63;23.58;;;6.10;99.90;;;;;;5012401;28;20038;-76
2022/01/14 08:46:52;;;;;;;49.30;24.17;;;6.10;99.90;;;;;;5008219;28;20056;-76
2022/01/14 08:49:17;;;;;;;38.58;24.02;;;6.10;99.90;;;;;;5012409;28;20049;-76
2022/01/14 08:51:43;;;;;;;51.15;24.13;;;6.20;99.90;;;;;;4991320;28;20042;-76
2022/01/14 08:54:09;;;;;;;37.35;23.20;;;6.20;99.90;;;;;;5010516;28;20562;-76
2022/01/14 08:56:35;;;;;;;42.33;24.15;;;6.20;99.90;;;;;;5029520;28;20165;-77
2022/01/14 08:59:01;;;;;;;40.38;23.33;;;6.20;99.90;;;;;;4994778;28;20084;-77
2022/01/14 09:01:27;;;;;;;41.40;23.55;;;6.30;99.90;;;;;;5010148;28;20041;-76
2022/01/14 09:03:53;;;;;;;42.42;22.67;;;6.30;99.90;;;;;;5011095;28;20080;-77
2022/01/14 09:06:19;;;;;;;42.47;22.50;;;6.30;99.90;;;;;;5009812;28;20092;-77
2022/01/14 09:08:45;;;;;;;36.80;22.25;;;6.30;99.90;;;;;;4994939;28;20034;-76
2022/01/14 09:11:10;;;;;;;40.97;21.80;;;6.30;99.90;;;;;;5009159;28;20076;-76
2022/01/14 09:13:36;;;;;;;43.70;22.83;;;6.40;99.90;;;;;;5008352;28;20042;-76
2022/01/14 09:16:02;;;;;;;37.25;21.85;;;6.40;99.90;;;;;;5007497;28;20217;-76
2022/01/14 09:18:28;;;;;;;42.30;23.30;;;6.40;99.90;;;;;;5007737;28;20042;-76
2022/01/14 09:20:56;;;;;;;44.80;22.35;;;6.50;99.90;;;;;;4987709;28;20076;-76
2022/01/14 09:23:25;;;;;;;41.72;22.73;;;6.50;99.90;;;;;;5009161;28;20099;-76
2022/01/14 09:25:52;;;;;;;37.85;21.30;;;6.50;99.90;;;;;;5004661;28;20030;-76
2022/01/14 09:28:17;;;;;;;44.15;22.35;;;6.50;99.90;;;;;;4987372;28;20044;-77
2022/01/14 09:30:43;;;;;;;38.47;21.08;;;6.50;99.90;;;;;;4991122;28;20053;-76
2022/01/14 09:33:09;;;;;;;42.03;22.58;;;6.50;99.90;;;;;;4992298;28;20041;-76
2022/01/14 09:35:35;;;;;;;38.63;20.35;;;6.60;99.90;;;;;;5000196;28;20072;-77
2022/01/14 09:38:01;;;;;;;33.05;21.13;;;6.50;99.90;;;;;;5009184;28;20167;-77
2022/01/14 09:40:28;;;;;;;40.92;20.80;;;6.60;99.90;;;;;;4992442;28;20046;-76
2022/01/14 09:43:00;;;;;;;35.67;19.85;;;6.60;99.90;;;;;;5014895;28;20038;-77
2022/01/14 09:45:26;;;;;;;39.53;19.03;;;6.60;99.90;;;;;;5014755;28;20049;-76
2022/01/14 09:47:52;;;;;;;36.65;20.23;;;6.60;99.90;;;;;;4994102;28;20308;-77
2022/01/14 09:50:19;;;;;;;37.67;20.13;;;6.60;99.90;;;;;;5015470;28;20053;-76
2022/01/14 09:52:47;;;;;;;34.83;18.35;;;6.70;99.90;;;;;;5012036;28;20052;-77
2022/01/14 09:55:13;;;;;;;33.92;18.55;;;6.70;99.90;;;;;;4997675;28;20049;-76
2022/01/14 09:57:38;;;;;;;33.05;18.15;;;6.70;99.90;;;;;;5006151;28;20042;-76
2022/01/14 10:00:06;;;;;;;35.70;17.65;;;6.80;99.90;;;;;;4996331;28;20083;-77
2022/01/14 10:02:34;;;;;;;38.10;17.17;;;6.80;99.90;;;;;;4994884;28;20416;-77
2022/01/14 10:05:01;;;;;;;31.45;17.00;;;6.80;99.90;;;;;;5011645;28;20037;-76
2022/01/14 10:07:29;;;;;;;35.88;17.63;;;6.90;99.90;;;;;;5015479;28;20045;-77
2022/01/14 10:09:58;;;;;;;36.42;16.05;;;6.90;99.90;;;;;;5023408;28;20124;-76
2022/01/14 10:12:24;;;;;;;30.27;15.55;;;6.90;99.90;;;;;;4967734;28;20073;-77
2022/01/14 10:15:06;;;;;;;35.45;15.05;;;7.00;99.90;;;;;;5005107;28;20034;-77
2022/01/14 10:17:43;;;;;;;28.67;13.80;;;7.00;99.90;;;;;;5010055;28;20041;-76
2022/01/14 10:20:13;;;;;;;27.15;13.27;;;7.10;99.90;;;;;;4978370;28;20335;-77
2022/01/14 10:22:42;;;;;;;28.73;13.05;;;7.10;99.90;;;;;;4974956;28;20081;-77
2022/01/14 10:25:17;;;;;;;24.92;12.30;;;7.10;99.90;;;;;;5009964;28;20034;-76
2022/01/14 10:27:54;;;;;;;19.75;10.90;;;7.10;99.90;;;;;;4989340;28;20050;-77
2022/01/14 10:30:28;;;;;;;26.70;12.15;;;7.10;99.90;;;;;;5010060;28;20076;-78
2022/01/14 10:33:08;;;;;;;26.08;11.88;;;7.20;99.90;;;;;;5012783;28;20041;-79
2022/01/14 10:35:35;;;;;;;29.17;11.55;;;7.20;99.90;;;;;;5014787;28;20046;-76
2022/01/14 10:38:05;;;;;;;23.10;11.05;;;7.20;99.90;;;;;;5018282;28;20045;-76
2022/01/14 10:40:35;;;;;;;23.15;10.15;;;7.20;99.90;;;;;;4998038;28;20045;-76
2022/01/14 10:43:12;;;;;;;20.95;9.98;;;7.20;99.90;;;;;;4989650;28;20048;-76
2022/01/14 10:45:39;;;;;;;29.38;10.73;;;7.20;99.90;;;;;;5003466;28;20441;-76
2022/01/14 10:48:10;;;;;;;25.88;9.48;;;7.30;99.90;;;;;;5005566;28;20038;-76
2022/01/14 10:50:38;;;;;;;26.15;9.80;;;7.40;99.90;;;;;;5019454;28;20461;-76
2022/01/14 10:53:10;;;;;;;19.63;9.02;;;7.30;99.90;;;;;;5030930;28;20091;-76
2022/01/14 10:55:47;;;;;;;29.75;9.68;;;7.40;99.90;;;;;;5015815;28;20041;-76
2022/01/14 10:58:35;;;;;;;25.20;12.63;;;7.40;99.90;;;;;;5013074;28;20073;-76
2022/01/14 11:01:07;;;;;;;37.40;17.27;;;7.40;99.90;;;;;;5013484;28;20034;-77
2022/01/14 11:03:38;;;;;;;22.15;8.85;;;7.40;99.90;;;;;;5018299;28;20041;-76
2022/01/14 11:06:25;;;;;;;21.67;8.52;;;7.40;99.90;;;;;;5006841;28;20038;-77
2022/01/14 11:09:06;;;;;;;20.25;8.65;;;7.40;99.90;;;;;;5011972;28;20122;-76
2022/01/14 11:11:34;;;;;;;18.45;8.35;;;7.50;99.90;;;;;;5007352;28;20050;-76
2022/01/14 11:14:00;;;;;;;22.33;8.35;;;7.50;99.90;;;;;;5012280;28;20546;-76
2022/01/14 11:16:26;;;;;;;55.65;36.15;;;7.40;99.90;;;;;;5012852;28;20045;-76
2022/01/14 11:18:52;;;;;;;45.97;30.00;;;7.50;99.90;;;;;;5013274;28;20037;-77
2022/01/14 11:24:04;;;;;;;21.55;9.93;;;7.70;99.90;;;;;;5011745;28;20054;-76
2022/01/14 11:26:35;;;;;;;21.23;12.35;;;7.60;99.90;;;;;;5016578;28;20080;-76
2022/01/14 11:29:13;;;;;;;20.50;8.73;;;7.60;99.90;;;;;;5010619;28;20033;-76
2022/01/14 11:31:40;;;;;;;20.58;8.18;;;7.60;99.90;;;;;;5014038;28;20037;-76
2022/01/14 11:34:37;;;;;;;18.73;7.78;;;7.60;99.90;;;;;;5019126;28;20041;-76
2022/01/14 11:37:05;;;;;;;23.25;11.25;;;7.60;99.90;;;;;;5011657;28;20038;-76
2022/01/14 11:39:35;;;;;;;28.85;15.43;;;7.70;99.90;;;;;;5010167;28;20524;-76
2022/01/14 11:42:08;;;;;;;94.15;58.72;;;7.70;99.90;;;;;;5013966;28;20045;-76
2022/01/14 11:47:24;;;;;;;52.60;35.67;;;7.70;99.90;;;;;;5013861;28;20046;-76
2022/01/14 11:49:50;;;;;;;18.00;8.02;;;7.70;99.90;;;;;;5010287;28;20088;-77
2022/01/14 11:52:36;;;;;;;42.47;24.42;;;7.70;99.90;;;;;;5011569;28;20567;-76
2022/01/14 11:55:03;;;;;;;34.97;16.10;;;7.70;99.90;;;;;;4993700;28;20488;-76
2022/01/14 11:57:42;;;;;;;60.75;33.47;;;7.70;99.90;;;;;;5012514;28;20508;-76
2022/01/14 12:00:39;;;;;;;83.22;41.65;;;7.70;99.90;;;;;;5007445;28;20088;-76
2022/01/14 12:03:10;;;;;;;245.50;120.43;;;7.70;99.90;;;;;;4996693;28;20404;-76
2022/01/14 12:05:38;;;;;;;37.75;19.67;;;7.60;99.90;;;;;;5009550;28;20476;-75
2022/01/14 12:08:04;;;;;;;26.08;13.15;;;7.60;99.90;;;;;;5006659;28;22660;-75
2022/01/14 12:10:32;;;;;;;117.47;86.88;;;7.60;99.90;;;;;;5008862;28;20125;-76
2022/01/14 12:16:03;;;;;;;;;;;7.60;99.90;;;;;;5012042;28;20042;-76
2022/01/14 12:18:57;;;;;;;19.30;7.25;;;7.50;99.90;;;;;;5010982;28;20268;-78
2022/01/14 12:21:41;;;;;;;19.17;8.50;;;7.50;99.90;;;;;;5012311;28;20340;-77
2022/01/14 12:27:11;;;;;;;18.88;7.30;;;7.50;99.90;;;;;;5011917;28;20048;-76
2022/01/14 12:29:44;;;;;;;16.52;7.15;;;7.60;99.90;;;;;;5013316;28;20041;-77
2022/01/14 12:32:36;;;;;;;17.15;6.95;;;7.50;99.90;;;;;;5011233;28;20041;-78
2022/01/14 12:35:10;;;;;;;19.08;8.10;;;7.60;99.90;;;;;;4992372;28;20119;-77
2022/01/14 12:37:46;;;;;;;18.95;7.65;;;7.60;99.90;;;;;;5013949;28;20526;-76
2022/01/14 12:40:21;;;;;;;14.20;7.03;;;7.70;99.90;;;;;;5004822;28;20042;-76
2022/01/14 12:42:59;;;;;;;19.65;7.03;;;7.80;99.90;;;;;;5012616;28;20042;-77
2022/01/14 12:45:34;;;;;;;17.42;6.35;;;7.70;99.90;;;;;;4988686;28;20042;-77
2022/01/14 12:48:05;;;;;;;20.08;6.68;;;7.80;99.90;;;;;;5010723;28;21843;-77
2022/01/14 12:50:31;;;;;;;20.08;6.32;;;7.80;99.90;;;;;;5020122;28;20179;-76
2022/01/14 12:52:57;;;;;;;19.23;6.07;;;7.70;99.90;;;;;;4992354;28;20120;-76
2022/01/14 12:55:22;;;;;;;16.00;6.10;;;7.70;99.90;;;;;;5022501;28;20049;-76
2022/01/14 12:57:48;;;;;;;22.25;6.40;;;7.60;99.90;;;;;;5010923;28;20045;-76
2022/01/14 13:00:16;;;;;;;19.80;5.57;;;7.60;99.90;;;;;;4994290;28;20046;-76
2022/01/14 13:02:42;;;;;;;20.27;5.88;;;7.70;99.90;;;;;;5013712;28;20396;-76
2022/01/14 13:05:15;;;;;;;13.70;5.60;;;7.70;99.90;;;;;;5005553;28;20034;-76
2022/01/14 13:07:43;;;;;;;21.42;5.53;;;7.70;99.90;;;;;;5013902;28;20056;-76
2022/01/14 13:10:11;;;;;;;18.05;5.45;;;7.70;99.90;;;;;;5009515;28;20061;-76
2022/01/14 13:12:41;;;;;;;20.42;5.60;;;7.70;99.90;;;;;;5009845;28;20038;-76
2022/01/14 13:15:10;;;;;;;17.27;5.60;;;7.70;99.90;;;;;;4989358;28;20400;-76
2022/01/14 13:17:42;;;;;;;13.32;5.32;;;7.70;99.90;;;;;;5006651;28;20373;-76
2022/01/14 13:20:13;;;;;;;22.02;7.35;;;7.60;99.90;;;;;;5009610;28;20400;-76
2022/01/14 13:22:41;;;;;;;21.73;5.75;;;7.60;99.90;;;;;;5010705;28;20042;-76
2022/01/14 13:25:10;;;;;;;29.45;14.35;;;7.70;99.90;;;;;;4996331;28;20049;-76
2022/01/14 13:27:38;;;;;;;21.23;8.15;;;7.70;99.90;;;;;;5010972;28;20058;-77
2022/01/14 13:30:15;;;;;;;18.27;6.53;;;7.70;99.90;;;;;;4990884;28;20042;-76
2022/01/14 13:32:41;;;;;;;22.45;9.55;;;7.70;99.90;;;;;;5042245;22;20045;-74
2022/01/14 13:35:29;;;;;;;22.58;15.05;;;7.70;99.90;;;;;;4998497;28;20045;-74
2022/01/14 13:37:58;;;;;;;19.45;5.80;;;7.70;99.90;;;;;;5009504;28;20120;-74
2022/01/14 13:40:29;;;;;;;22.08;14.68;;;7.60;99.90;;;;;;4997837;28;20046;-74
2022/01/14 13:43:21;;;;;;;15.82;6.70;;;7.60;99.90;;;;;;4999754;28;20045;-74
2022/01/14 13:45:51;;;;;;;;;;;7.70;99.90;;;;;;4978888;28;20042;-74
2022/01/14 13:48:26;;;;;;;17.42;5.78;;;7.70;99.90;;;;;;4977505;28;19961;-74
2022/01/14 13:51:07;;;;;;;17.55;5.20;;;7.70;99.90;;;;;;4980978;28;20458;-74
2022/01/14 13:53:35;;;;;;;16.55;5.32;;;7.60;99.90;;;;;;4984100;28;20042;-75
2022/01/14 13:56:09;;;;;;;17.70;4.88;;;7.60;99.90;;;;;;4973834;28;20507;-74
2022/01/14 13:58:37;;;;;;;15.25;5.38;;;7.60;99.90;;;;;;4965385;28;20054;-74
2022/01/14 14:01:06;;;;;;;16.25;5.20;;;7.60;99.90;;;;;;4976292;28;20073;-73
2022/01/14 14:03:50;;;;;;;20.95;6.07;;;7.60;99.90;;;;;;4974067;28;20121;-73
2022/01/14 14:06:24;;;;;;;16.02;5.20;;;7.60;99.90;;;;;;4970737;28;20038;-72
2022/01/14 14:09:01;;;;;;;20.35;6.05;;;7.60;99.90;;;;;;4981733;28;20045;-73
2022/01/14 14:16:45;;;;;;;19.60;7.65;;;7.60;99.90;;;;;;4978042;28;20042;-73
2022/01/14 14:19:11;;;;;;;16.02;5.10;;;7.60;99.90;;;;;;4970500;28;20169;-73
2022/01/14 14:21:39;;;;;;;17.58;5.07;;;7.60;99.90;;;;;;4974486;28;20135;-73
2022/01/14 14:24:09;;;;;;;21.20;11.32;;;7.60;99.90;;;;;;4976523;28;20125;-74
2022/01/14 14:26:35;;;;;;;15.57;6.05;;;7.50;99.90;;;;;;4975006;28;20050;-73
2022/01/14 14:29:20;;;;;;;21.40;7.70;;;7.50;99.90;;;;;;4985520;28;20044;-73
2022/01/14 14:31:46;;;;;;;18.52;5.65;;;7.60;99.90;;;;;;4976830;28;20046;-72
2022/01/14 14:34:12;;;;;;;16.30;6.15;;;7.50;99.90;;;;;;4971883;28;20046;-73
2022/01/14 14:36:39;;;;;;;19.80;5.90;;;7.50;99.90;;;;;;4956811;28;20041;-72
2022/01/14 14:39:05;;;;;;;19.05;5.43;;;7.40;99.90;;;;;;4997560;28;20046;-72
2022/01/14 14:41:31;;;;;;;19.45;6.32;;;7.30;99.90;;;;;;4980368;28;20049;-72
2022/01/14 14:43:56;;;;;;;23.60;6.25;;;7.30;99.90;;;;;;4983753;28;20042;-72
2022/01/14 14:46:22;;;;;;;20.83;6.35;;;7.30;99.90;;;;;;4981421;28;20066;-72
2022/01/14 14:48:49;;;;;;;27.17;6.63;;;7.30;99.90;;;;;;4985821;28;20040;-72
2022/01/14 14:51:15;;;;;;;18.63;6.25;;;7.30;99.90;;;;;;4972509;28;20168;-73
2022/01/14 14:53:41;;;;;;;24.40;6.93;;;7.30;99.90;;;;;;4975363;28;20044;-72
2022/01/14 14:56:10;;;;;;;20.98;6.63;;;7.30;99.90;;;;;;4981699;28;20705;-72
2022/01/14 14:58:37;;;;;;;25.88;7.25;;;7.30;99.90;;;;;;4972726;28;20133;-74
2022/01/14 15:01:07;;;;;;;21.20;6.75;;;7.20;99.90;;;;;;4974956;28;20043;-73
2022/01/14 15:03:34;;;;;;;23.10;7.20;;;7.30;99.90;;;;;;4969611;28;20073;-73
2022/01/14 15:06:00;;;;;;;25.20;7.00;;;7.20;99.90;;;;;;4990287;28;20038;-73
2022/01/14 15:08:26;;;;;;;21.77;7.00;;;7.20;99.90;;;;;;4974204;28;20048;-72
2022/01/14 15:10:52;;;;;;;19.50;7.28;;;7.20;99.90;;;;;;4977249;28;20073;-73
2022/01/14 15:13:18;;;;;;;27.90;7.45;;;7.20;99.90;;;;;;5002724;28;20045;-72
2022/01/14 15:20:36;;;;;;;28.58;10.32;;;7.10;99.90;;;;;;4985314;28;20062;-72
2022/01/14 15:23:03;;;;;;;37.50;14.45;;;7.10;99.90;;;;;;4977433;28;20056;-72
2022/01/14 15:25:29;;;;;;;27.10;8.82;;;7.20;99.90;;;;;;4989963;28;20089;-73
2022/01/14 15:27:56;;;;;;;20.73;7.40;;;7.10;99.90;;;;;;4989558;28;20038;-72
2022/01/14 15:30:23;;;;;;;21.85;8.13;;;7.10;99.90;;;;;;4997981;28;20066;-72
2022/01/14 15:32:49;;;;;;;27.90;7.72;;;7.10;99.90;;;;;;4994584;28;20042;-72
2022/01/14 15:35:15;;;;;;;25.60;7.63;;;7.10;99.90;;;;;;4982673;28;20034;-72
2022/01/14 15:37:42;;;;;;;23.65;7.63;;;7.10;99.90;;;;;;4997840;28;20092;-72
2022/01/14 15:40:08;;;;;;;27.80;8.25;;;7.10;99.90;;;;;;4976649;28;20030;-72
2022/01/14 15:42:35;;;;;;;21.88;8.30;;;7.10;99.90;;;;;;4971969;28;20039;-72
2022/01/14 15:45:03;;;;;;;26.25;7.90;;;7.10;99.90;;;;;;4967773;28;20038;-72
2022/01/14 15:47:29;;;;;;;27.35;8.13;;;7.10;99.90;;;;;;4972603;28;20804;-72
2022/01/14 15:49:55;;;;;;;24.30;8.10;;;7.00;99.90;;;;;;4956177;28;20046;-72
2022/01/14 15:52:22;;;;;;;23.27;8.27;;;7.10;99.90;;;;;;4991482;28;20162;-72
2022/01/14 15:54:47;;;;;;;22.38;8.13;;;7.00;99.90;;;;;;4993833;28;20612;-72
2022/01/14 15:57:13;;;;;;;27.05;8.50;;;7.10;99.90;;;;;;4990751;28;20042;-72
2022/01/14 15:59:39;;;;;;;28.63;9.07;;;7.00;99.90;;;;;;4976295;28;20038;-72
2022/01/14 16:02:05;;;;;;;21.10;8.13;;;7.00;99.90;;;;;;4972801;28;20519;-72